sensor_id;sensor_type;location;lat;lon;timestamp;pressure;altitude;pressure_sealevel;temperature;humidity
21742;BME280;11033;47.490;11.116;2023-04-02T00:04:44;92392.44;;;4.79;81.70
21742;BME280;11033;47.490;11.116;2023-04-02T00:07:23;92386.81;;;4.90;80.56
21742;BME280;11033;47.490;11.116;2023-04-02T00:09:56;92397.94;;;4.84;81.46
21742;BME280;11033;47.490;11.116;2023-04-02T00:12:22;92397.13;;;4.84;80.94
21742;BME280;11033;47.490;11.116;2023-04-02T00:14:50;92399.56;;;4.85;81.09
21742;BME280;11033;47.490;11.116;2023-04-02T00:17:16;92390.41;;;4.89;79.35
21742;BME280;11033;47.490;11.116;2023-04-02T00:19:57;92400.84;;;4.89;79.52
21742;BME280;11033;47.490;11.116;2023-04-02T00:22:27;92411.31;;;4.81;81.36
21742;BME280;11033;47.490;11.116;2023-04-02T00:24:54;92409.88;;;4.78;81.42
21742;BME280;11033;47.490;11.116;2023-04-02T00:27:21;92405.66;;;4.77;80.20
21742;BME280;11033;47.490;11.116;2023-04-02T00:29:52;92406.75;;;4.83;80.20
21742;BME280;11033;47.490;11.116;2023-04-02T00:32:21;92419.09;;;4.89;80.94
21742;BME280;11033;47.490;11.116;2023-04-02T00:34:49;92417.94;;;4.92;80.11
21742;BME280;11033;47.490;11.116;2023-04-02T00:37:20;92429.47;;;4.97;79.84
21742;BME280;11033;47.490;11.116;2023-04-02T00:39:50;92436.19;;;4.92;79.92
21742;BME280;11033;47.490;11.116;2023-04-02T00:42:17;92429.34;;;4.91;79.93
21742;BME280;11033;47.490;11.116;2023-04-02T00:44:44;92422.97;;;4.93;80.84
21742;BME280;11033;47.490;11.116;2023-04-02T00:47:22;92421.69;;;4.89;81.49
21742;BME280;11033;47.490;11.116;2023-04-02T00:49:54;92424.78;;;4.93;80.48
21742;BME280;11033;47.490;11.116;2023-04-02T00:52:24;92421.53;;;4.91;80.60
21742;BME280;11033;47.490;11.116;2023-04-02T00:57:34;92417.75;;;4.93;81.30
21742;BME280;11033;47.490;11.116;2023-04-02T01:02:36;92425.06;;;4.98;81.56
21742;BME280;11033;47.490;11.116;2023-04-02T01:08:13;92430.28;;;4.98;81.27
21742;BME280;11033;47.490;11.116;2023-04-02T01:19:15;92438.28;;;4.96;80.02
21742;BME280;11033;47.490;11.116;2023-04-02T01:24:36;92443.16;;;4.99;79.27
21742;BME280;11033;47.490;11.116;2023-04-02T01:27:18;92448.72;;;4.96;80.69
21742;BME280;11033;47.490;11.116;2023-04-02T01:29:55;92455.91;;;4.94;82.10
21742;BME280;11033;47.490;11.116;2023-04-02T01:32:23;92449.06;;;4.93;81.62
21742;BME280;11033;47.490;11.116;2023-04-02T01:34:50;92453.25;;;5.02;81.00
21742;BME280;11033;47.490;11.116;2023-04-02T01:40:12;92448.72;;;4.96;80.51
21742;BME280;11033;47.490;11.116;2023-04-02T01:42:55;92442.91;;;4.86;80.95
21742;BME280;11033;47.490;11.116;2023-04-02T01:45:24;92439.03;;;4.82;82.01
21742;BME280;11033;47.490;11.116;2023-04-02T01:47:49;92439.97;;;4.89;81.09
21742;BME280;11033;47.490;11.116;2023-04-02T01:52:45;92437.69;;;4.86;80.46
21742;BME280;11033;47.490;11.116;2023-04-02T01:55:13;92451.38;;;4.88;81.41
21742;BME280;11033;47.490;11.116;2023-04-02T01:57:45;92440.59;;;4.91;81.21
21742;BME280;11033;47.490;11.116;2023-04-02T02:00:13;92459.28;;;4.80;82.50
21742;BME280;11033;47.490;11.116;2023-04-02T02:02:41;92457.94;;;4.84;82.54
21742;BME280;11033;47.490;11.116;2023-04-02T02:05:12;92461.59;;;4.75;82.40
21742;BME280;11033;47.490;11.116;2023-04-02T02:07:38;92461.25;;;4.78;81.76
21742;BME280;11033;47.490;11.116;2023-04-02T02:10:04;92463.84;;;4.78;81.24
21742;BME280;11033;47.490;11.116;2023-04-02T02:12:29;92464.78;;;4.85;80.95
21742;BME280;11033;47.490;11.116;2023-04-02T02:14:55;92472.94;;;4.82;81.10
21742;BME280;11033;47.490;11.116;2023-04-02T02:17:26;92473.75;;;4.83;81.03
21742;BME280;11033;47.490;11.116;2023-04-02T02:19:56;92472.00;;;4.75;81.25
21742;BME280;11033;47.490;11.116;2023-04-02T02:22:32;92475.94;;;4.71;81.45
21742;BME280;11033;47.490;11.116;2023-04-02T02:25:02;92474.31;;;4.70;82.17
21742;BME280;11033;47.490;11.116;2023-04-02T02:29:55;92477.09;;;4.68;82.45
21742;BME280;11033;47.490;11.116;2023-04-02T02:32:25;92479.41;;;4.63;82.39
21742;BME280;11033;47.490;11.116;2023-04-02T02:35:07;92476.28;;;4.68;81.27
21742;BME280;11033;47.490;11.116;2023-04-02T02:37:39;92466.06;;;4.58;82.11
21742;BME280;11033;47.490;11.116;2023-04-02T02:40:11;92470.13;;;4.61;81.82
21742;BME280;11033;47.490;11.116;2023-04-02T02:42:41;92472.75;;;4.53;82.22
21742;BME280;11033;47.490;11.116;2023-04-02T02:45:13;92474.13;;;4.40;83.05
21742;BME280;11033;47.490;11.116;2023-04-02T02:47:42;92482.94;;;4.39;83.44
21742;BME280;11033;47.490;11.116;2023-04-02T02:50:21;92482.63;;;4.34;83.75
21742;BME280;11033;47.490;11.116;2023-04-02T02:52:53;92492.28;;;4.26;83.68
21742;BME280;11033;47.490;11.116;2023-04-02T02:55:35;92494.03;;;4.33;83.68
21742;BME280;11033;47.490;11.116;2023-04-02T02:58:14;92497.66;;;4.24;83.06
21742;BME280;11033;47.490;11.116;2023-04-02T03:00:41;92500.41;;;4.31;82.05
21742;BME280;11033;47.490;11.116;2023-04-02T03:03:13;92500.94;;;4.18;82.95
21742;BME280;11033;47.490;11.116;2023-04-02T03:05:40;92501.56;;;4.20;83.76
21742;BME280;11033;47.490;11.116;2023-04-02T03:08:12;92493.13;;;4.10;83.92
21742;BME280;11033;47.490;11.116;2023-04-02T03:10:50;92501.59;;;4.12;83.14
21742;BME280;11033;47.490;11.116;2023-04-02T03:13:22;92495.91;;;4.08;82.22
21742;BME280;11033;47.490;11.116;2023-04-02T03:15:53;92494.13;;;4.01;83.57
21742;BME280;11033;47.490;11.116;2023-04-02T03:18:41;92497.22;;;4.04;81.74
21742;BME280;11033;47.490;11.116;2023-04-02T03:23:41;92504.59;;;3.93;82.42
21742;BME280;11033;47.490;11.116;2023-04-02T03:26:43;92506.53;;;3.91;81.80
21742;BME280;11033;47.490;11.116;2023-04-02T03:29:16;92506.19;;;3.86;83.01
21742;BME280;11033;47.490;11.116;2023-04-02T03:31:49;92509.97;;;3.75;83.43
21742;BME280;11033;47.490;11.116;2023-04-02T03:34:54;92508.66;;;3.71;82.88
21742;BME280;11033;47.490;11.116;2023-04-02T03:37:26;92521.19;;;3.67;83.38
21742;BME280;11033;47.490;11.116;2023-04-02T03:40:03;92518.25;;;3.70;83.46
21742;BME280;11033;47.490;11.116;2023-04-02T03:42:39;92526.91;;;3.63;82.96
21742;BME280;11033;47.490;11.116;2023-04-02T03:45:17;92521.69;;;3.63;82.42
21742;BME280;11033;47.490;11.116;2023-04-02T03:47:54;92524.47;;;3.53;82.89
21742;BME280;11033;47.490;11.116;2023-04-02T03:50:30;92528.69;;;3.46;83.46
21742;BME280;11033;47.490;11.116;2023-04-02T03:52:59;92526.41;;;3.43;83.40
21742;BME280;11033;47.490;11.116;2023-04-02T03:55:27;92527.41;;;3.34;83.62
21742;BME280;11033;47.490;11.116;2023-04-02T03:58:36;92531.31;;;3.30;83.80
21742;BME280;11033;47.490;11.116;2023-04-02T04:01:23;92526.41;;;3.27;83.37
21742;BME280;11033;47.490;11.116;2023-04-02T04:03:55;92536.31;;;3.23;83.43
21742;BME280;11033;47.490;11.116;2023-04-02T04:06:25;92529.63;;;3.12;84.99
21742;BME280;11033;47.490;11.116;2023-04-02T04:11:25;92532.41;;;3.11;84.42
21742;BME280;11033;47.490;11.116;2023-04-02T04:14:12;92538.06;;;3.06;85.12
21742;BME280;11033;47.490;11.116;2023-04-02T04:19:17;92551.72;;;3.00;84.91
21742;BME280;11033;47.490;11.116;2023-04-02T04:21:46;92554.00;;;3.03;84.28
21742;BME280;11033;47.490;11.116;2023-04-02T04:24:21;92546.81;;;2.89;85.07
21742;BME280;11033;47.490;11.116;2023-04-02T04:26:54;92553.03;;;3.04;84.63
21742;BME280;11033;47.490;11.116;2023-04-02T04:29:52;92556.94;;;3.00;85.07
21742;BME280;11033;47.490;11.116;2023-04-02T04:32:24;92555.47;;;2.98;84.11
21742;BME280;11033;47.490;11.116;2023-04-02T04:34:54;92563.72;;;2.85;84.60
21742;BME280;11033;47.490;11.116;2023-04-02T04:37:29;92568.59;;;2.88;83.50
21742;BME280;11033;47.490;11.116;2023-04-02T04:40:15;92577.19;;;2.80;85.07
21742;BME280;11033;47.490;11.116;2023-04-02T04:42:44;92586.16;;;2.86;84.45
21742;BME280;11033;47.490;11.116;2023-04-02T04:48:23;92591.34;;;2.86;85.11
21742;BME280;11033;47.490;11.116;2023-04-02T04:51:18;92602.03;;;2.75;85.57
21742;BME280;11033;47.490;11.116;2023-04-02T04:53:47;92604.81;;;2.81;85.84
21742;BME280;11033;47.490;11.116;2023-04-02T04:56:16;92604.66;;;2.83;85.52
21742;BME280;11033;47.490;11.116;2023-04-02T04:58:54;92608.75;;;2.85;83.82
21742;BME280;11033;47.490;11.116;2023-04-02T05:01:27;92608.91;;;2.84;84.14
21742;BME280;11033;47.490;11.116;2023-04-02T05:04:23;92607.59;;;2.80;83.74
21742;BME280;11033;47.490;11.116;2023-04-02T05:06:59;92616.03;;;2.82;85.00
21742;BME280;11033;47.490;11.116;2023-04-02T05:09:39;92603.00;;;2.74;85.47
21742;BME280;11033;47.490;11.116;2023-04-02T05:15:03;92609.38;;;2.79;83.98
21742;BME280;11033;47.490;11.116;2023-04-02T05:17:35;92611.16;;;2.79;84.78
21742;BME280;11033;47.490;11.116;2023-04-02T05:20:25;92609.84;;;2.75;85.00
21742;BME280;11033;47.490;11.116;2023-04-02T05:22:56;92604.97;;;2.72;85.74
21742;BME280;11033;47.490;11.116;2023-04-02T05:30:44;92615.34;;;2.72;85.14
21742;BME280;11033;47.490;11.116;2023-04-02T05:33:31;92618.28;;;2.69;86.37
21742;BME280;11033;47.490;11.116;2023-04-02T05:38:26;92637.19;;;2.87;84.11
21742;BME280;11033;47.490;11.116;2023-04-02T05:41:02;92633.78;;;2.86;84.98
21742;BME280;11033;47.490;11.116;2023-04-02T05:43:31;92637.19;;;2.87;84.33
21742;BME280;11033;47.490;11.116;2023-04-02T05:46:01;92636.22;;;2.88;84.14
21742;BME280;11033;47.490;11.116;2023-04-02T05:48:35;92635.25;;;2.89;85.62
21742;BME280;11033;47.490;11.116;2023-04-02T05:51:03;92639.66;;;2.97;84.66
21742;BME280;11033;47.490;11.116;2023-04-02T05:53:33;92645.50;;;2.91;84.53
21742;BME280;11033;47.490;11.116;2023-04-02T05:56:31;92645.03;;;2.95;85.55
21742;BME280;11033;47.490;11.116;2023-04-02T05:59:09;92640.47;;;2.97;85.35
21742;BME280;11033;47.490;11.116;2023-04-02T06:01:36;92651.56;;;3.07;84.05
21742;BME280;11033;47.490;11.116;2023-04-02T06:04:12;92645.38;;;3.08;85.58
21742;BME280;11033;47.490;11.116;2023-04-02T06:09:13;92652.88;;;3.11;84.70
21742;BME280;11033;47.490;11.116;2023-04-02T06:11:48;92642.78;;;3.08;85.10
21742;BME280;11033;47.490;11.116;2023-04-02T06:14:15;92651.56;;;3.07;86.55
21742;BME280;11033;47.490;11.116;2023-04-02T06:16:43;92651.13;;;3.20;85.08
21742;BME280;11033;47.490;11.116;2023-04-02T06:19:31;92653.69;;;3.12;84.79
21742;BME280;11033;47.490;11.116;2023-04-02T06:22:18;92664.34;;;3.27;84.17
21742;BME280;11033;47.490;11.116;2023-04-02T06:24:50;92666.63;;;3.30;85.43
21742;BME280;11033;47.490;11.116;2023-04-02T06:27:20;92659.16;;;3.35;86.04
21742;BME280;11033;47.490;11.116;2023-04-02T06:29:49;92659.81;;;3.37;85.70
21742;BME280;11033;47.490;11.116;2023-04-02T06:32:18;92669.91;;;3.48;84.78
21742;BME280;11033;47.490;11.116;2023-04-02T06:34:47;92668.31;;;3.63;83.46
21742;BME280;11033;47.490;11.116;2023-04-02T06:39:43;92665.72;;;3.71;84.36
21742;BME280;11033;47.490;11.116;2023-04-02T06:42:36;92668.66;;;3.76;84.95
21742;BME280;11033;47.490;11.116;2023-04-02T06:45:04;92670.13;;;3.87;84.78
21742;BME280;11033;47.490;11.116;2023-04-02T06:47:35;92673.09;;;3.92;85.41
21742;BME280;11033;47.490;11.116;2023-04-02T06:50:07;92677.16;;;4.03;85.53
21742;BME280;11033;47.490;11.116;2023-04-02T06:52:51;92684.00;;;4.12;85.00
21742;BME280;11033;47.490;11.116;2023-04-02T06:58:04;92683.34;;;4.26;82.75
21742;BME280;11033;47.490;11.116;2023-04-02T07:00:42;92685.94;;;4.34;82.21
21742;BME280;11033;47.490;11.116;2023-04-02T07:03:14;92689.38;;;4.43;82.45
21742;BME280;11033;47.490;11.116;2023-04-02T07:05:40;92689.34;;;4.51;82.62
21742;BME280;11033;47.490;11.116;2023-04-02T07:08:06;92691.81;;;4.61;82.59
21742;BME280;11033;47.490;11.116;2023-04-02T07:10:32;92686.91;;;4.66;82.12
21742;BME280;11033;47.490;11.116;2023-04-02T07:12:57;92688.53;;;4.75;81.87
21742;BME280;11033;47.490;11.116;2023-04-02T07:15:23;92697.31;;;4.82;82.44
21742;BME280;11033;47.490;11.116;2023-04-02T07:17:49;92688.47;;;4.91;81.89
21742;BME280;11033;47.490;11.116;2023-04-02T07:20:28;92691.72;;;5.01;81.86
21742;BME280;11033;47.490;11.116;2023-04-02T07:22:54;92685.81;;;5.07;81.38
21742;BME280;11033;47.490;11.116;2023-04-02T07:25:20;92689.03;;;5.18;81.16
21742;BME280;11033;47.490;11.116;2023-04-02T07:27:46;92683.00;;;5.25;80.85
21742;BME280;11033;47.490;11.116;2023-04-02T07:30:12;92683.94;;;5.32;80.84
21742;BME280;11033;47.490;11.116;2023-04-02T07:32:37;92684.09;;;5.39;80.46
21742;BME280;11033;47.490;11.116;2023-04-02T07:35:03;92688.63;;;5.45;79.83
21742;BME280;11033;47.490;11.116;2023-04-02T07:37:29;92692.81;;;5.54;79.79
21742;BME280;11033;47.490;11.116;2023-04-02T07:39:55;92692.13;;;5.60;79.71
21742;BME280;11033;47.490;11.116;2023-04-02T07:42:21;92688.84;;;5.66;78.62
21742;BME280;11033;47.490;11.116;2023-04-02T07:44:46;92695.97;;;5.72;79.16
21742;BME280;11033;47.490;11.116;2023-04-02T07:47:11;92698.91;;;5.78;78.31
21742;BME280;11033;47.490;11.116;2023-04-02T07:49:36;92693.31;;;5.81;77.25
21742;BME280;11033;47.490;11.116;2023-04-02T07:52:02;92703.13;;;5.87;77.94
21742;BME280;11033;47.490;11.116;2023-04-02T07:54:27;92698.03;;;5.93;77.96
21742;BME280;11033;47.490;11.116;2023-04-02T07:56:54;92706.06;;;5.92;77.25
21742;BME280;11033;47.490;11.116;2023-04-02T07:59:19;92706.59;;;6.10;76.28
21742;BME280;11033;47.490;11.116;2023-04-02T08:01:45;92702.00;;;6.12;75.55
21742;BME280;11033;47.490;11.116;2023-04-02T08:04:18;92702.47;;;6.16;76.19
21742;BME280;11033;47.490;11.116;2023-04-02T08:06:45;92701.75;;;6.22;76.31
21742;BME280;11033;47.490;11.116;2023-04-02T08:09:11;92699.31;;;6.43;75.25
21742;BME280;11033;47.490;11.116;2023-04-02T08:11:37;92704.34;;;6.45;74.90
21742;BME280;11033;47.490;11.116;2023-04-02T08:14:02;92704.88;;;6.63;74.02
21742;BME280;11033;47.490;11.116;2023-04-02T08:16:42;92699.66;;;6.63;74.77
21742;BME280;11033;47.490;11.116;2023-04-02T08:19:07;92693.16;;;6.74;74.04
21742;BME280;11033;47.490;11.116;2023-04-02T08:21:33;92704.13;;;6.92;73.52
21742;BME280;11033;47.490;11.116;2023-04-02T08:23:58;92707.59;;;7.22;70.10
21742;BME280;11033;47.490;11.116;2023-04-02T08:26:23;92706.88;;;7.28;70.76
21742;BME280;11033;47.490;11.116;2023-04-02T08:28:49;92698.19;;;7.27;71.47
21742;BME280;11033;47.490;11.116;2023-04-02T08:31:14;92695.31;;;7.88;68.87
21742;BME280;11033;47.490;11.116;2023-04-02T08:33:39;92701.16;;;8.05;68.13
21742;BME280;11033;47.490;11.116;2023-04-02T08:36:05;92703.09;;;8.17;68.16
21742;BME280;11033;47.490;11.116;2023-04-02T08:38:30;92701.22;;;8.11;68.81
21742;BME280;11033;47.490;11.116;2023-04-02T08:40:58;92695.50;;;8.44;66.95
21742;BME280;11033;47.490;11.116;2023-04-02T08:43:55;92706.53;;;8.54;64.71
21742;BME280;11033;47.490;11.116;2023-04-02T08:46:29;92706.16;;;8.57;64.14
21742;BME280;11033;47.490;11.116;2023-04-02T08:49:00;92705.16;;;8.58;65.44
21742;BME280;11033;47.490;11.116;2023-04-02T08:51:29;92705.88;;;8.73;63.75
21742;BME280;11033;47.490;11.116;2023-04-02T08:54:14;92705.06;;;8.73;64.42
21742;BME280;11033;47.490;11.116;2023-04-02T08:56:46;92708.66;;;8.93;65.55
21742;BME280;11033;47.490;11.116;2023-04-02T09:04:17;92709.69;;;9.20;63.90
21742;BME280;11033;47.490;11.116;2023-04-02T09:06:45;92704.81;;;9.17;65.40
21742;BME280;11033;47.490;11.116;2023-04-02T09:09:12;92711.63;;;9.39;64.11
21742;BME280;11033;47.490;11.116;2023-04-02T09:11:51;92704.78;;;9.45;61.75
21742;BME280;11033;47.490;11.116;2023-04-02T09:15:05;92715.81;;;9.68;61.57
21742;BME280;11033;47.490;11.116;2023-04-02T09:17:18;92711.88;;;9.85;61.91
21742;BME280;11033;47.490;11.116;2023-04-02T09:20:33;92717.75;;;9.94;60.47
21742;BME280;11033;47.490;11.116;2023-04-02T09:22:33;92711.22;;;10.25;58.80
21742;BME280;11033;47.490;11.116;2023-04-02T09:25:00;92714.81;;;10.17;58.35
21742;BME280;11033;47.490;11.116;2023-04-02T09:27:29;92715.88;;;10.29;60.06
21742;BME280;11033;47.490;11.116;2023-04-02T09:32:52;92715.16;;;10.55;60.06
21742;BME280;11033;47.490;11.116;2023-04-02T09:35:29;92718.81;;;10.61;58.74
21742;BME280;11033;47.490;11.116;2023-04-02T09:40:41;92722.66;;;10.71;57.48
21742;BME280;11033;47.490;11.116;2023-04-02T09:43:17;92727.13;;;10.77;56.24
21742;BME280;11033;47.490;11.116;2023-04-02T09:45:54;92720.66;;;10.87;56.67
21742;BME280;11033;47.490;11.116;2023-04-02T09:48:35;92725.91;;;10.93;58.01
21742;BME280;11033;47.490;11.116;2023-04-02T09:53:30;92734.88;;;11.12;57.99
21742;BME280;11033;47.490;11.116;2023-04-02T09:56:13;92740.94;;;11.19;57.86
21742;BME280;11033;47.490;11.116;2023-04-02T09:58:39;92738.50;;;11.24;56.80
21742;BME280;11033;47.490;11.116;2023-04-02T10:01:25;92746.22;;;11.19;57.50
21742;BME280;11033;47.490;11.116;2023-04-02T10:03:52;92743.19;;;11.09;56.81
21742;BME280;11033;47.490;11.116;2023-04-02T10:06:17;92745.41;;;11.12;58.52
21742;BME280;11033;47.490;11.116;2023-04-02T10:08:44;92747.03;;;11.13;57.86
21742;BME280;11033;47.490;11.116;2023-04-02T10:11:16;92748.63;;;10.88;58.16
21742;BME280;11033;47.490;11.116;2023-04-02T10:13:58;92752.31;;;11.13;58.94
21742;BME280;11033;47.490;11.116;2023-04-02T10:16:39;92744.56;;;11.05;57.84
21742;BME280;11033;47.490;11.116;2023-04-02T10:21:41;92755.09;;;10.92;59.69
21742;BME280;11033;47.490;11.116;2023-04-02T10:24:15;92756.72;;;10.93;57.38
21742;BME280;11033;47.490;11.116;2023-04-02T10:32:10;92759.16;;;11.01;58.94
21742;BME280;11033;47.490;11.116;2023-04-02T10:34:48;92767.25;;;10.79;57.33
21742;BME280;11033;47.490;11.116;2023-04-02T10:40:09;92763.97;;;10.64;58.53
21742;BME280;11033;47.490;11.116;2023-04-02T10:42:44;92764.03;;;10.91;59.08
21742;BME280;11033;47.490;11.116;2023-04-02T10:45:47;92769.28;;;10.91;57.67
21742;BME280;11033;47.490;11.116;2023-04-02T10:51:38;92771.31;;;10.89;57.70
21742;BME280;11033;47.490;11.116;2023-04-02T10:57:36;92778.16;;;10.63;55.21
21742;BME280;11033;47.490;11.116;2023-04-02T11:02:40;92780.78;;;10.63;55.25
21742;BME280;11033;47.490;11.116;2023-04-02T11:05:18;92787.50;;;10.72;55.64
21742;BME280;11033;47.490;11.116;2023-04-02T11:07:54;92791.34;;;10.76;57.07
21742;BME280;11033;47.490;11.116;2023-04-02T11:10:21;92790.13;;;10.72;56.54
21742;BME280;11033;47.490;11.116;2023-04-02T11:12:54;92792.41;;;10.89;57.61
21742;BME280;11033;47.490;11.116;2023-04-02T11:15:22;92788.75;;;10.90;57.31
21742;BME280;11033;47.490;11.116;2023-04-02T11:17:47;92787.13;;;10.89;56.90
21742;BME280;11033;47.490;11.116;2023-04-02T11:23:17;92798.69;;;10.88;55.15
21742;BME280;11033;47.490;11.116;2023-04-02T11:25:44;92805.34;;;10.70;55.96
21742;BME280;11033;47.490;11.116;2023-04-02T11:28:24;92805.75;;;10.80;55.49
21742;BME280;11033;47.490;11.116;2023-04-02T11:30:51;92809.81;;;10.76;55.16
21742;BME280;11033;47.490;11.116;2023-04-02T11:35:54;92806.19;;;11.04;55.39
21742;BME280;11033;47.490;11.116;2023-04-02T11:40:53;92809.06;;;11.09;56.15
21742;BME280;11033;47.490;11.116;2023-04-02T11:48:33;92818.81;;;11.41;53.52
21742;BME280;11033;47.490;11.116;2023-04-02T11:51:01;92813.94;;;11.65;54.78
21742;BME280;11033;47.490;11.116;2023-04-02T11:53:35;92818.41;;;11.97;53.84
21742;BME280;11033;47.490;11.116;2023-04-02T11:56:20;92824.22;;;12.26;54.09
21742;BME280;11033;47.490;11.116;2023-04-02T11:58:59;92822.25;;;12.66;54.93
21742;BME280;11033;47.490;11.116;2023-04-02T12:07:24;92824.94;;;13.04;49.91
21742;BME280;11033;47.490;11.116;2023-04-02T12:10:15;92832.63;;;13.44;50.69
21742;BME280;11033;47.490;11.116;2023-04-02T12:12:41;92826.28;;;13.76;52.69
21742;BME280;11033;47.490;11.116;2023-04-02T12:18:02;92839.50;;;13.76;52.03
21742;BME280;11033;47.490;11.116;2023-04-02T12:20:29;92832.16;;;13.22;48.69
21742;BME280;11033;47.490;11.116;2023-04-02T12:22:56;92832.47;;;13.63;50.98
21742;BME280;11033;47.490;11.116;2023-04-02T12:25:34;92836.66;;;13.21;50.21
21742;BME280;11033;47.490;11.116;2023-04-02T12:28:15;92834.06;;;13.40;51.86
21742;BME280;11033;47.490;11.116;2023-04-02T12:30:48;92833.81;;;13.16;49.88
21742;BME280;11033;47.490;11.116;2023-04-02T12:33:32;92841.59;;;13.43;51.99
21742;BME280;11033;47.490;11.116;2023-04-02T12:36:03;92840.78;;;13.42;50.91
21742;BME280;11033;47.490;11.116;2023-04-02T12:38:31;92839.56;;;13.07;48.55
21742;BME280;11033;47.490;11.116;2023-04-02T12:41:00;92837.66;;;13.20;50.08
21742;BME280;11033;47.490;11.116;2023-04-02T12:43:32;92831.34;;;13.21;48.76
21742;BME280;11033;47.490;11.116;2023-04-02T12:46:01;92829.72;;;13.20;48.71
21742;BME280;11033;47.490;11.116;2023-04-02T12:48:28;92838.50;;;13.46;51.58
21742;BME280;11033;47.490;11.116;2023-04-02T12:50:55;92843.56;;;13.22;49.68
21742;BME280;11033;47.490;11.116;2023-04-02T12:53:30;92845.41;;;13.15;51.07
21742;BME280;11033;47.490;11.116;2023-04-02T12:55:57;92839.47;;;13.26;51.30
21742;BME280;11033;47.490;11.116;2023-04-02T12:58:37;92841.09;;;13.27;51.82
21742;BME280;11033;47.490;11.116;2023-04-02T13:01:17;92843.56;;;13.22;53.41
21742;BME280;11033;47.490;11.116;2023-04-02T13:06:28;92848.63;;;12.79;53.62
21742;BME280;11033;47.490;11.116;2023-04-02T13:08:55;92844.09;;;12.93;54.05
21742;BME280;11033;47.490;11.116;2023-04-02T13:11:21;92845.63;;;12.69;54.54
21742;BME280;11033;47.490;11.116;2023-04-02T13:13:48;92841.53;;;12.09;55.96
21742;BME280;11033;47.490;11.116;2023-04-02T13:18:40;92849.47;;;11.95;56.15
21742;BME280;11033;47.490;11.116;2023-04-02T13:21:23;92855.34;;;11.71;57.43
21742;BME280;11033;47.490;11.116;2023-04-02T13:23:51;92861.47;;;11.91;57.23
21742;BME280;11033;47.490;11.116;2023-04-02T13:26:20;92851.72;;;11.92;57.78
21742;BME280;11033;47.490;11.116;2023-04-02T13:31:35;92864.44;;;11.09;61.85
21742;BME280;11033;47.490;11.116;2023-04-02T13:34:00;92866.88;;;11.17;61.69
21742;BME280;11033;47.490;11.116;2023-04-02T13:36:26;92868.31;;;11.39;60.86
21742;BME280;11033;47.490;11.116;2023-04-02T13:38:53;92870.94;;;11.39;60.65
21742;BME280;11033;47.490;11.116;2023-04-02T13:41:27;92871.53;;;11.15;60.63
21742;BME280;11033;47.490;11.116;2023-04-02T13:43:56;92876.13;;;11.00;61.86
21742;BME280;11033;47.490;11.116;2023-04-02T13:46:26;92880.72;;;10.78;62.00
21742;BME280;11033;47.490;11.116;2023-04-02T13:48:53;92883.16;;;10.79;62.36
21742;BME280;11033;47.490;11.116;2023-04-02T13:51:22;92880.72;;;10.71;61.79
21742;BME280;11033;47.490;11.116;2023-04-02T13:53:51;92878.72;;;10.80;61.64
21742;BME280;11033;47.490;11.116;2023-04-02T13:56:18;92883.97;;;10.73;62.30
21742;BME280;11033;47.490;11.116;2023-04-02T13:58:44;92880.44;;;10.53;61.94
21742;BME280;11033;47.490;11.116;2023-04-02T14:01:09;92884.78;;;10.80;60.91
21742;BME280;11033;47.490;11.116;2023-04-02T14:03:36;92889.25;;;10.80;61.22
21742;BME280;11033;47.490;11.116;2023-04-02T14:08:48;92899.56;;;10.75;61.54
21742;BME280;11033;47.490;11.116;2023-04-02T14:11:35;92894.25;;;10.62;60.87
21742;BME280;11033;47.490;11.116;2023-04-02T14:25:17;92905.03;;;10.73;61.00
21742;BME280;11033;47.490;11.116;2023-04-02T14:30:44;92904.88;;;10.88;60.80
21742;BME280;11033;47.490;11.116;2023-04-02T14:35:46;92901.16;;;10.69;60.00
21742;BME280;11033;47.490;11.116;2023-04-02T14:38:36;92907.09;;;10.85;60.50
21742;BME280;11033;47.490;11.116;2023-04-02T14:41:17;92896.97;;;10.88;61.80
21742;BME280;11033;47.490;11.116;2023-04-02T14:43:57;92910.91;;;10.75;62.62
21742;BME280;11033;47.490;11.116;2023-04-02T14:46:27;92905.81;;;10.67;63.49
21742;BME280;11033;47.490;11.116;2023-04-02T14:52:04;92915.53;;;10.67;65.16
21742;BME280;11033;47.490;11.116;2023-04-02T14:54:36;92916.34;;;10.67;64.21
21742;BME280;11033;47.490;11.116;2023-04-02T14:57:14;92923.22;;;10.62;65.92
21742;BME280;11033;47.490;11.116;2023-04-02T15:00:03;92926.44;;;10.57;67.24
21742;BME280;11033;47.490;11.116;2023-04-02T15:05:01;92927.06;;;10.25;68.81
21742;BME280;11033;47.490;11.116;2023-04-02T15:07:35;92936.81;;;10.31;70.55
21742;BME280;11033;47.490;11.116;2023-04-02T15:10:31;92947.34;;;10.31;71.19
21742;BME280;11033;47.490;11.116;2023-04-02T15:13:01;92948.38;;;10.08;73.21
21742;BME280;11033;47.490;11.116;2023-04-02T15:15:42;92943.91;;;10.09;73.84
21742;BME280;11033;47.490;11.116;2023-04-02T15:18:14;92951.19;;;10.07;75.17
21742;BME280;11033;47.490;11.116;2023-04-02T15:26:18;92948.63;;;9.85;73.26
21742;BME280;11033;47.490;11.116;2023-04-02T15:31:18;92952.00;;;10.07;74.92
21742;BME280;11033;47.490;11.116;2023-04-02T15:33:53;92957.66;;;10.04;77.77
21742;BME280;11033;47.490;11.116;2023-04-02T15:39:30;92963.44;;;9.93;72.17
21742;BME280;11033;47.490;11.116;2023-04-02T15:42:06;92963.31;;;10.01;71.68
21742;BME280;11033;47.490;11.116;2023-04-02T15:44:41;92964.50;;;9.99;71.96
21742;BME280;11033;47.490;11.116;2023-04-02T15:49:58;92961.19;;;9.47;71.91
21742;BME280;11033;47.490;11.116;2023-04-02T15:52:42;92967.25;;;9.69;71.00
21742;BME280;11033;47.490;11.116;2023-04-02T15:55:21;92967.09;;;9.49;70.44
21742;BME280;11033;47.490;11.116;2023-04-02T16:01:05;92969.78;;;9.56;72.92
21742;BME280;11033;47.490;11.116;2023-04-02T16:04:00;92972.22;;;9.58;71.82
21742;BME280;11033;47.490;11.116;2023-04-02T16:07:02;92979.09;;;9.59;72.17
21742;BME280;11033;47.490;11.116;2023-04-02T16:12:33;92992.88;;;8.88;73.85
21742;BME280;11033;47.490;11.116;2023-04-02T16:15:17;92998.22;;;8.80;73.74